createdAt,value
2022-11-15T00:01:18.855Z,100034.47
2022-11-15T00:04:05.329Z,100030.16
2022-11-15T00:06:50.999Z,100026.78
2022-11-15T00:09:36.804Z,100027.47
2022-11-15T00:12:22.580Z,100028.84
2022-11-15T00:15:08.615Z,100021.31
2022-11-15T00:17:54.204Z,100031.84
2022-11-15T00:20:40.071Z,100036.63
2022-11-15T00:23:25.935Z,100034.31
2022-11-15T00:26:12.539Z,100039.97
2022-11-15T00:28:58.396Z,100026.09
2022-11-15T00:31:43.977Z,100024.56
2022-11-15T00:34:29.859Z,100028.28
2022-11-15T00:37:15.555Z,100018.94
2022-11-15T00:40:01.216Z,100018.75
2022-11-15T00:42:47.015Z,100016.06
2022-11-15T00:45:32.720Z,100012.59
2022-11-15T00:48:18.274Z,100016.34
2022-11-15T00:51:04.148Z,100013.25
2022-11-15T00:53:50.058Z,100014.16
2022-11-15T00:56:35.795Z,100016.16
2022-11-15T00:59:21.769Z,100011.38
2022-11-15T01:02:07.481Z,100004.53
2022-11-15T01:04:53.320Z,100002.94
2022-11-15T01:07:39.150Z,99995.25
2022-11-15T01:10:40.195Z,99999.75
2022-11-15T01:13:26.019Z,99988.53
2022-11-15T01:16:13.318Z,99986.88
2022-11-15T01:18:59.222Z,99982.53
2022-11-15T01:21:45.061Z,99989.25
2022-11-15T01:24:30.892Z,99980.94
2022-11-15T01:27:16.896Z,99972.38
2022-11-15T01:30:02.704Z,99969.56
2022-11-15T01:32:48.503Z,99972.47
2022-11-15T01:35:34.422Z,99977.44
2022-11-15T01:38:19.972Z,99970.28
2022-11-15T01:41:05.874Z,99977.56
2022-11-15T01:43:53.063Z,99973.19
2022-11-15T01:46:38.540Z,99968.53
2022-11-15T01:49:24.147Z,99959.88
2022-11-15T01:52:14.922Z,99957.63
2022-11-15T01:55:27.138Z,99964.56
2022-11-15T01:58:13.142Z,99969.31
2022-11-15T02:00:58.928Z,99953.53
2022-11-15T02:03:50.779Z,99957.13
2022-11-15T02:06:36.884Z,99960.28
2022-11-15T02:09:22.704Z,99950.22
2022-11-15T02:12:08.559Z,99933.28
2022-11-15T02:14:54.591Z,99936.19
2022-11-15T02:17:45.885Z,99939.41
2022-11-15T02:20:41.077Z,99939.13
2022-11-15T02:23:26.867Z,99936.78
2022-11-15T02:26:12.954Z,99934.03
2022-11-15T02:29:01.947Z,99934.84
2022-11-15T02:31:50.335Z,99934.91
2022-11-15T02:34:52.908Z,99925.87
2022-11-15T02:37:38.434Z,99927.31
2022-11-15T02:40:27.818Z,99923.13
2022-11-15T02:43:32.780Z,99921.06
2022-11-15T02:46:18.475Z,99925.03
2022-11-15T02:49:04.092Z,99917.94
2022-11-15T02:51:50.069Z,99921.69
2022-11-15T02:54:35.547Z,99924.00
2022-11-15T02:57:21.472Z,99918.06
2022-11-15T03:00:07.135Z,99921.69
2022-11-15T03:03:02.244Z,99921.53
2022-11-15T03:05:47.612Z,99916.41
2022-11-15T03:08:34.101Z,99916.47
2022-11-15T03:11:20.092Z,99916.63
2022-11-15T03:14:16.492Z,99917.53
2022-11-15T03:17:17.668Z,99913.19
2022-11-15T03:20:05.138Z,99918.94
2022-11-15T03:22:50.977Z,99912.84
2022-11-15T03:25:37.855Z,99902.31
2022-11-15T03:28:24.663Z,99892.41
2022-11-15T03:31:29.065Z,99894.03
2022-11-15T03:34:17.404Z,99885.63
2022-11-15T03:37:02.908Z,99888.19
2022-11-15T03:39:48.398Z,99886.37
2022-11-15T03:42:39.789Z,99886.47
2022-11-15T03:45:30.149Z,99881.47
2022-11-15T03:48:17.471Z,99879.22
2022-11-15T03:51:03.915Z,99870.06
2022-11-15T03:53:49.537Z,99863.31
2022-11-15T03:56:35.157Z,99869.09
2022-11-15T03:59:20.890Z,99885.66
2022-11-15T04:02:06.621Z,99870.91
2022-11-15T04:04:52.340Z,99855.19
2022-11-15T04:07:38.249Z,99852.78
2022-11-15T04:10:24.209Z,99849.59
2022-11-15T04:13:10.085Z,99858.91
2022-11-15T04:15:55.594Z,99863.37
2022-11-15T04:18:41.250Z,99866.38
2022-11-15T04:21:45.299Z,99859.22
2022-11-15T04:24:31.199Z,99860.59
2022-11-15T04:27:16.690Z,99866.41
2022-11-15T04:30:02.426Z,99866.78
2022-11-15T04:32:47.856Z,99858.16
2022-11-15T04:35:33.834Z,99839.72
2022-11-15T04:38:19.543Z,99837.25
2022-11-15T04:41:04.935Z,99842.53
2022-11-15T04:43:50.622Z,99834.72
2022-11-15T04:46:36.454Z,99840.19
2022-11-15T04:49:22.484Z,99839.06
2022-11-15T04:52:08.298Z,99837.34
2022-11-15T04:54:54.215Z,99839.53
2022-11-15T04:57:40.030Z,99848.44
2022-11-15T05:00:25.742Z,99844.25
2022-11-15T05:03:30.548Z,99842.41
2022-11-15T05:06:16.735Z,99842.75
2022-11-15T05:09:02.212Z,99841.41
2022-11-15T05:11:48.112Z,99853.97
2022-11-15T05:14:33.874Z,99846.44
2022-11-15T05:17:19.619Z,99842.69
2022-11-15T05:20:05.463Z,99838.12
2022-11-15T05:22:51.085Z,99833.78
2022-11-15T05:25:37.224Z,99837.09
2022-11-15T05:28:23.018Z,99832.81
2022-11-15T05:31:09.293Z,99822.09
2022-11-15T05:33:55.268Z,99825.41
2022-11-15T05:36:44.121Z,99821.44
2022-11-15T05:39:29.828Z,99816.63
2022-11-15T05:42:15.539Z,99824.16
2022-11-15T05:45:01.045Z,99818.69
2022-11-15T05:47:46.474Z,99814.78
2022-11-15T05:50:32.344Z,99821.47
2022-11-15T05:53:18.666Z,99825.13
2022-11-15T05:56:04.459Z,99833.91
2022-11-15T05:58:50.306Z,99826.97
2022-11-15T06:01:35.797Z,99824.88
2022-11-15T06:04:21.221Z,99812.72
2022-11-15T06:07:07.102Z,99811.00
2022-11-15T06:09:53.060Z,99808.91
2022-11-15T06:12:38.828Z,99822.19
2022-11-15T06:15:24.344Z,99815.75
2022-11-15T06:18:10.361Z,99821.25
2022-11-15T06:20:59.351Z,99815.50
2022-11-15T06:23:44.776Z,99819.66
2022-11-15T06:26:30.634Z,99823.94
2022-11-15T06:29:16.599Z,99825.28
2022-11-15T06:32:02.330Z,99830.34
2022-11-15T06:34:48.188Z,99830.34
2022-11-15T06:37:34.424Z,99831.84
2022-11-15T06:40:20.034Z,99831.53
2022-11-15T06:43:06.412Z,99834.44
2022-11-15T06:45:52.039Z,99825.75
2022-11-15T06:48:37.910Z,99824.97
2022-11-15T06:51:23.607Z,99822.31
2022-11-15T06:54:09.432Z,99828.47
2022-11-15T06:56:55.385Z,99835.53
2022-11-15T06:59:41.146Z,99826.31
2022-11-15T07:02:27.001Z,99822.16
2022-11-15T07:05:13.113Z,99818.31
2022-11-15T07:07:58.741Z,99819.69
2022-11-15T07:10:44.298Z,99808.56
2022-11-15T07:13:30.962Z,99814.28
2022-11-15T07:16:16.638Z,99806.72
2022-11-15T07:19:02.627Z,99800.00
2022-11-15T07:21:48.569Z,99802.81
2022-11-15T07:24:34.067Z,99799.12
2022-11-15T07:27:20.000Z,99800.09
2022-11-15T07:30:06.016Z,99801.69
2022-11-15T07:32:58.331Z,99803.72
2022-11-15T07:35:44.222Z,99797.44
2022-11-15T07:38:30.126Z,99791.12
2022-11-15T07:41:16.107Z,99795.97
2022-11-15T07:44:02.637Z,99804.75
2022-11-15T07:46:48.398Z,99813.62
2022-11-15T07:49:34.205Z,99813.66
2022-11-15T07:52:20.029Z,99805.75
2022-11-15T07:55:06.020Z,99811.31
2022-11-15T07:57:51.758Z,99802.22
2022-11-15T08:00:37.167Z,99795.13
2022-11-15T08:03:23.124Z,99794.91
2022-11-15T08:06:08.913Z,99797.34
2022-11-15T08:08:54.824Z,99806.38
2022-11-15T08:11:40.888Z,99806.97
2022-11-15T08:14:26.539Z,99790.31
2022-11-15T08:17:12.327Z,99775.84
2022-11-15T08:19:58.220Z,99772.56
2022-11-15T08:22:44.029Z,99775.09
2022-11-15T08:25:30.792Z,99763.63
2022-11-15T08:28:17.194Z,99761.22
2022-11-15T08:31:03.496Z,99772.84
2022-11-15T08:33:49.042Z,99773.09
2022-11-15T08:36:44.585Z,99768.19
2022-11-15T08:39:31.769Z,99771.47
2022-11-15T08:42:19.914Z,99762.66
2022-11-15T08:45:06.420Z,99755.34
2022-11-15T08:47:54.420Z,99751.59
2022-11-15T08:50:40.941Z,99757.53
2022-11-15T08:53:26.631Z,99745.16
2022-11-15T08:56:12.880Z,99736.91
2022-11-15T08:58:58.631Z,99738.78
2022-11-15T09:01:44.457Z,99745.12
2022-11-15T09:04:30.305Z,99740.72
2022-11-15T09:07:16.203Z,99749.37
2022-11-15T09:10:02.280Z,99748.94
2022-11-15T09:12:49.548Z,99745.75
2022-11-15T09:15:35.397Z,99739.88
2022-11-15T09:18:23.479Z,99739.59
2022-11-15T09:21:09.305Z,99746.97
2022-11-15T09:23:55.004Z,99748.47
2022-11-15T09:26:41.142Z,99741.09
2022-11-15T09:29:26.984Z,99735.91
2022-11-15T09:32:12.576Z,99738.50
2022-11-15T09:34:58.453Z,99727.63
2022-11-15T09:37:43.925Z,99726.03
2022-11-15T09:40:30.679Z,99722.00
2022-11-15T09:43:30.285Z,99718.44
2022-11-15T09:46:18.567Z,99722.12
2022-11-15T09:48:50.408Z,99728.56
2022-11-15T09:51:25.276Z,99722.91
2022-11-15T09:54:30.886Z,99732.06
2022-11-15T09:56:44.741Z,99729.94
2022-11-15T09:59:16.367Z,99727.66
2022-11-15T10:01:43.612Z,99721.53
2022-11-15T10:04:12.142Z,99712.78
2022-11-15T10:06:40.461Z,99702.00
2022-11-15T10:09:11.070Z,99707.59
2022-11-15T10:11:39.603Z,99701.41
2022-11-15T10:14:12.438Z,99687.19
2022-11-15T10:16:52.107Z,99692.44
2022-11-15T10:19:38.137Z,99688.63
2022-11-15T10:22:11.347Z,99694.28
2022-11-15T10:24:40.713Z,99684.66
2022-11-15T10:27:12.439Z,99679.09
2022-11-15T10:29:43.632Z,99671.53
2022-11-15T10:32:15.282Z,99674.31
2022-11-15T10:34:42.600Z,99667.38
2022-11-15T10:37:09.863Z,99668.50
2022-11-15T10:39:37.311Z,99672.25
2022-11-15T10:42:28.345Z,99671.88
2022-11-15T10:44:55.891Z,99662.06
2022-11-15T10:47:26.236Z,99658.37
2022-11-15T10:49:54.680Z,99648.16
2022-11-15T10:52:23.190Z,99652.28
2022-11-15T10:54:53.172Z,99651.28
2022-11-15T10:57:22.575Z,99643.37
2022-11-15T10:59:51.017Z,99633.88
2022-11-15T11:02:27.918Z,99634.63
2022-11-15T11:04:55.360Z,99621.56
2022-11-15T11:07:24.405Z,99618.16
2022-11-15T11:10:50.338Z,99618.91
2022-11-15T11:13:35.003Z,99622.34
2022-11-15T11:16:14.309Z,99623.06
2022-11-15T11:18:45.183Z,99611.94
2022-11-15T11:21:14.562Z,99615.28
2022-11-15T11:23:55.584Z,99609.31
2022-11-15T11:26:30.931Z,99605.81
2022-11-15T11:29:17.330Z,99605.16
2022-11-15T11:31:48.629Z,99600.62
2022-11-15T11:34:22.234Z,99593.78
2022-11-15T11:37:06.314Z,99594.78
2022-11-15T11:39:52.689Z,99585.62
2022-11-15T11:42:38.645Z,99586.53
2022-11-15T11:45:06.126Z,99598.94
2022-11-15T11:47:34.813Z,99592.69
2022-11-15T11:50:03.591Z,99596.34
2022-11-15T11:52:32.469Z,99591.78
2022-11-15T11:55:02.029Z,99576.91
2022-11-15T11:57:31.998Z,99578.84
2022-11-15T12:00:05.407Z,99577.59
2022-11-15T12:02:40.531Z,99562.78
2022-11-15T12:05:13.228Z,99559.44
2022-11-15T12:07:40.594Z,99554.00
2022-11-15T12:10:24.577Z,99557.19
2022-11-15T12:12:55.279Z,99547.41
2022-11-15T12:15:29.251Z,99548.78
2022-11-15T12:17:56.718Z,99546.88
2022-11-15T12:20:28.311Z,99542.91
2022-11-15T12:23:01.515Z,99535.22
2022-11-15T12:25:38.384Z,99536.66
2022-11-15T12:28:12.958Z,99528.44
2022-11-15T12:30:51.424Z,99523.56
2022-11-15T12:33:30.826Z,99520.37
2022-11-15T12:35:59.670Z,99519.00
2022-11-15T12:39:02.195Z,99522.03
2022-11-15T12:41:30.943Z,99515.34
2022-11-15T12:44:00.014Z,99503.38
2022-11-15T12:46:30.091Z,99506.63
2022-11-15T12:48:58.880Z,99498.19
2022-11-15T12:51:44.696Z,99504.72
2022-11-15T12:54:24.600Z,99503.94
2022-11-15T12:57:04.243Z,99501.03
2022-11-15T12:59:50.298Z,99506.28
2022-11-15T13:02:40.903Z,99503.06
2022-11-15T13:05:14.398Z,99503.75
2022-11-15T13:07:41.702Z,99507.91
2022-11-15T13:10:15.221Z,99507.66
2022-11-15T13:12:45.558Z,99506.19
2022-11-15T13:15:13.103Z,99508.38
2022-11-15T13:17:46.282Z,99500.56
2022-11-15T13:20:16.405Z,99486.97
2022-11-15T13:22:55.801Z,99484.44
2022-11-15T13:25:32.717Z,99482.25
2022-11-15T13:28:05.020Z,99481.03
2022-11-15T13:30:35.135Z,99483.47
2022-11-15T13:33:08.041Z,99481.88
2022-11-15T13:35:37.325Z,99465.31
2022-11-15T13:38:05.248Z,99464.88
2022-11-15T13:40:36.104Z,99459.56
2022-11-15T13:43:38.898Z,99453.69
2022-11-15T13:46:06.232Z,99463.28
2022-11-15T13:48:35.059Z,99466.81
2022-11-15T13:51:05.745Z,99462.63
2022-11-15T13:53:33.682Z,99447.31
2022-11-15T13:56:01.223Z,99435.88
2022-11-15T13:58:28.485Z,99437.31
2022-11-15T14:00:59.795Z,99441.66
2022-11-15T14:03:34.101Z,99441.50
2022-11-15T14:06:01.272Z,99441.75
2022-11-15T14:08:28.811Z,99437.72
2022-11-15T14:11:16.242Z,99438.16
2022-11-15T14:13:43.938Z,99440.97
2022-11-15T14:16:14.300Z,99433.94
2022-11-15T14:18:43.008Z,99447.69
2022-11-15T14:21:10.541Z,99438.72
2022-11-15T14:23:37.790Z,99436.37
2022-11-15T14:26:11.301Z,99426.12
2022-11-15T14:28:40.356Z,99423.16
2022-11-15T14:31:10.656Z,99426.28
2022-11-15T14:33:38.299Z,99415.88
2022-11-15T14:36:11.735Z,99417.47
2022-11-15T14:38:38.970Z,99424.78
2022-11-15T14:41:06.910Z,99421.25
2022-11-15T14:43:34.225Z,99411.53
2022-11-15T14:46:01.531Z,99412.13
2022-11-15T14:48:29.986Z,99416.78
2022-11-15T14:50:57.580Z,99406.53
2022-11-15T14:53:24.994Z,99410.47
2022-11-15T14:55:52.504Z,99396.34
2022-11-15T14:58:19.944Z,99388.56
2022-11-15T15:00:47.185Z,99406.47
2022-11-15T15:03:14.713Z,99394.44
2022-11-15T15:05:42.742Z,99396.97
2022-11-15T15:08:10.284Z,99393.16
2022-11-15T15:10:40.968Z,99391.59
2022-11-15T15:13:26.597Z,99394.94
2022-11-15T15:15:54.153Z,99395.91
2022-11-15T15:18:21.570Z,99378.31
2022-11-15T15:20:50.555Z,99380.53
2022-11-15T15:23:18.911Z,99384.81
2022-11-15T15:25:47.022Z,99382.25
2022-11-15T15:28:14.403Z,99386.34
2022-11-15T15:30:42.034Z,99385.38
2022-11-15T15:33:09.267Z,99383.66
2022-11-15T15:35:36.471Z,99385.28
2022-11-15T15:38:04.392Z,99386.25
2022-11-15T15:40:32.306Z,99380.31
2022-11-15T15:42:59.888Z,99383.28
2022-11-15T15:45:28.635Z,99378.91
2022-11-15T15:47:56.072Z,99377.06
2022-11-15T15:50:24.744Z,99386.91
2022-11-15T15:52:52.970Z,99382.78
2022-11-15T15:55:20.357Z,99382.88
2022-11-15T15:57:47.981Z,99379.97
2022-11-15T16:00:15.647Z,99373.63
2022-11-15T16:02:43.263Z,99387.53
2022-11-15T16:05:10.822Z,99378.59
2022-11-15T16:07:38.251Z,99377.72
2022-11-15T16:10:18.196Z,99371.72
2022-11-15T16:12:46.012Z,99384.88
2022-11-15T16:15:13.531Z,99373.19
2022-11-15T16:17:41.892Z,99367.31
2022-11-15T16:20:14.240Z,99364.47
2022-11-15T16:22:41.767Z,99372.28
2022-11-15T16:25:09.162Z,99364.16
2022-11-15T16:27:38.350Z,99363.50
2022-11-15T16:30:06.142Z,99362.81
2022-11-15T16:32:33.966Z,99357.19
2022-11-15T16:35:01.267Z,99355.84
2022-11-15T16:37:29.767Z,99355.53
2022-11-15T16:40:00.821Z,99353.94
2022-11-15T16:42:28.724Z,99355.09
2022-11-15T16:44:55.982Z,99350.84
2022-11-15T16:47:23.717Z,99354.28
2022-11-15T16:49:51.226Z,99356.88
2022-11-15T16:52:21.412Z,99346.94
2022-11-15T16:54:48.937Z,99342.62
2022-11-15T16:57:16.671Z,99351.25
2022-11-15T16:59:43.972Z,99342.25
2022-11-15T17:02:14.125Z,99345.56
2022-11-15T17:04:41.685Z,99341.38
2022-11-15T17:07:08.942Z,99342.25
2022-11-15T17:09:36.156Z,99346.94
2022-11-15T17:12:03.888Z,99344.59
2022-11-15T17:14:31.090Z,99338.81
2022-11-15T17:16:58.293Z,99343.81
2022-11-15T17:19:25.791Z,99338.91
2022-11-15T17:21:53.853Z,99333.72
2022-11-15T17:24:21.427Z,99326.81
2022-11-15T17:26:49.004Z,99331.81
2022-11-15T17:29:16.251Z,99320.06
2022-11-15T17:31:44.357Z,99328.25
2022-11-15T17:34:12.031Z,99325.53
2022-11-15T17:36:39.342Z,99316.97
2022-11-15T17:39:06.639Z,99313.53
2022-11-15T17:41:34.488Z,99313.41
2022-11-15T17:44:03.625Z,99316.38
2022-11-15T17:46:31.114Z,99301.25
2022-11-15T17:48:59.491Z,99295.31
2022-11-15T17:51:26.743Z,99290.59
2022-11-15T17:53:54.581Z,99285.78
2022-11-15T17:56:23.075Z,99285.69
2022-11-15T17:58:50.287Z,99280.59
2022-11-15T18:01:22.760Z,99280.59
2022-11-15T18:03:50.839Z,99276.16
2022-11-15T18:06:18.617Z,99281.84
2022-11-15T18:08:46.601Z,99280.00
2022-11-15T18:11:14.416Z,99280.12
2022-11-15T18:13:42.553Z,99272.78
2022-11-15T18:16:11.235Z,99271.09
2022-11-15T18:18:38.782Z,99268.44
2022-11-15T18:21:13.309Z,99260.50
2022-11-15T18:23:41.696Z,99266.84
2022-11-15T18:26:10.400Z,99260.06
2022-11-15T18:28:38.806Z,99259.09
2022-11-15T18:31:13.917Z,99255.97
2022-11-15T18:33:41.685Z,99254.13
2022-11-15T18:36:10.439Z,99260.81
2022-11-15T18:38:37.657Z,99252.28
2022-11-15T18:41:05.903Z,99247.53
2022-11-15T18:43:33.776Z,99255.00
2022-11-15T18:46:05.061Z,99252.16
2022-11-15T18:48:32.828Z,99255.00
2022-11-15T18:51:05.478Z,99260.22
2022-11-15T18:53:33.294Z,99252.16
2022-11-15T18:56:06.803Z,99241.41
2022-11-15T18:58:35.135Z,99240.00
2022-11-15T19:01:10.711Z,99240.31
2022-11-15T19:03:39.108Z,99237.75
2022-11-15T19:06:08.398Z,99234.94
2022-11-15T19:08:36.793Z,99241.00
2022-11-15T19:11:05.017Z,99230.13
2022-11-15T19:13:32.858Z,99228.84
2022-11-15T19:16:01.049Z,99226.00
2022-11-15T19:18:28.607Z,99229.22
2022-11-15T19:20:56.578Z,99216.97
2022-11-15T19:23:23.925Z,99226.97
2022-11-15T19:25:55.394Z,99221.91
2022-11-15T19:28:22.955Z,99208.37
2022-11-15T19:30:50.399Z,99205.69
2022-11-15T19:33:18.141Z,99206.38
2022-11-15T19:35:45.778Z,99213.31
2022-11-15T19:38:13.248Z,99205.25
2022-11-15T19:40:40.409Z,99204.12
2022-11-15T19:43:07.863Z,99204.25
2022-11-15T19:45:35.191Z,99195.22
2022-11-15T19:48:02.494Z,99195.84
2022-11-15T19:50:30.446Z,99202.66
2022-11-15T19:52:58.527Z,99194.06
2022-11-15T19:55:26.000Z,99190.78
2022-11-15T19:57:53.571Z,99180.91
2022-11-15T20:00:20.822Z,99181.78
2022-11-15T20:02:48.473Z,99172.88
2022-11-15T20:05:18.525Z,99172.84
2022-11-15T20:07:48.167Z,99174.50
2022-11-15T20:10:20.587Z,99169.28
2022-11-15T20:12:48.391Z,99171.63
2022-11-15T20:15:16.033Z,99170.50
2022-11-15T20:17:43.319Z,99165.25
2022-11-15T20:20:11.677Z,99159.59
2022-11-15T20:22:39.187Z,99155.22
2022-11-15T20:25:06.486Z,99161.00
2022-11-15T20:27:33.792Z,99153.53
2022-11-15T20:30:01.292Z,99160.84
2022-11-15T20:32:28.717Z,99153.97
2022-11-15T20:34:55.959Z,99154.94
2022-11-15T20:37:23.615Z,99153.50
2022-11-15T20:39:50.907Z,99151.66
2022-11-15T20:42:18.186Z,99154.25
2022-11-15T20:44:45.713Z,99150.72
2022-11-15T20:47:12.939Z,99143.94
2022-11-15T20:49:40.181Z,99147.19
2022-11-15T20:52:07.648Z,99140.81
2022-11-15T20:54:34.983Z,99145.47
2022-11-15T20:57:02.210Z,99153.69
2022-11-15T20:59:30.367Z,99138.97
2022-11-15T21:01:57.620Z,99134.03
2022-11-15T21:04:24.944Z,99133.47
2022-11-15T21:06:52.784Z,99138.41
2022-11-15T21:09:38.917Z,99130.22
2022-11-15T21:12:12.372Z,99120.47
2022-11-15T21:14:40.250Z,99119.06
2022-11-15T21:17:08.152Z,99113.41
2022-11-15T21:19:37.042Z,99120.62
2022-11-15T21:22:05.158Z,99112.28
2022-11-15T21:24:32.720Z,99105.59
2022-11-15T21:26:59.968Z,99098.53
2022-11-15T21:29:28.584Z,99099.13
2022-11-15T21:31:56.185Z,99099.53
2022-11-15T21:34:23.369Z,99098.66
2022-11-15T21:36:50.575Z,99098.62
2022-11-15T21:39:18.128Z,99096.91
2022-11-15T21:41:45.383Z,99092.13
2022-11-15T21:44:12.576Z,99096.06
2022-11-15T21:46:40.095Z,99088.91
2022-11-15T21:49:07.282Z,99093.69
2022-11-15T21:51:34.631Z,99081.59
2022-11-15T21:54:02.269Z,99091.00
2022-11-15T21:56:29.664Z,99083.97
2022-11-15T21:58:56.913Z,99086.00
2022-11-15T22:01:43.486Z,99089.66
2022-11-15T22:04:11.054Z,99089.62
2022-11-15T22:06:38.433Z,99094.97
2022-11-15T22:09:05.864Z,99090.56
2022-11-15T22:11:33.399Z,99090.72
2022-11-15T22:14:00.805Z,99079.78
2022-11-15T22:16:28.036Z,99080.75
2022-11-15T22:18:55.644Z,99071.56
2022-11-15T22:21:22.963Z,99064.41
2022-11-15T22:23:50.326Z,99068.25
2022-11-15T22:26:23.185Z,99057.22
2022-11-15T22:28:50.908Z,99058.63
2022-11-15T22:31:18.442Z,99057.03
2022-11-15T22:33:45.926Z,99054.03
2022-11-15T22:36:13.180Z,99044.34
2022-11-15T22:38:40.813Z,99047.59
2022-11-15T22:41:08.192Z,99039.72
2022-11-15T22:43:35.469Z,99051.16
2022-11-15T22:46:03.637Z,99044.06
2022-11-15T22:48:32.098Z,99030.66
2022-11-15T22:50:59.889Z,99032.22
2022-11-15T22:53:27.580Z,99034.28
2022-11-15T22:55:58.596Z,99034.78
2022-11-15T22:58:26.517Z,99027.13
2022-11-15T23:00:55.664Z,99025.25
2022-11-15T23:03:23.457Z,99029.22
2022-11-15T23:05:50.927Z,99026.09
2022-11-15T23:08:18.660Z,99021.62
2022-11-15T23:11:04.645Z,99015.84
2022-11-15T23:13:32.719Z,99012.00
2022-11-15T23:16:19.674Z,99014.12
2022-11-15T23:19:09.353Z,99009.63
2022-11-15T23:22:15.415Z,99009.78
2022-11-15T23:25:02.919Z,98993.38
2022-11-15T23:27:30.117Z,98997.22
2022-11-15T23:30:16.346Z,98988.31
2022-11-15T23:33:02.054Z,98986.19
2022-11-15T23:35:29.557Z,98987.03
2022-11-15T23:37:56.952Z,98982.19
2022-11-15T23:40:24.198Z,98968.56
2022-11-15T23:42:51.766Z,98975.19
2022-11-15T23:45:19.007Z,98970.81
2022-11-15T23:47:46.229Z,98970.41
2022-11-15T23:50:13.822Z,98973.97
2022-11-15T23:52:41.054Z,98961.16
2022-11-15T23:55:08.468Z,98965.91
2022-11-15T23:57:36.035Z,98965.44
